Time;durP1;ratioP1;P1;durP2;ratioP2;P2;SDS_P1;SDS_P2;PMS_P1;PMS_P2;Temp;Humidity;BMP_temperature;BMP_pressure;BME280_temperature;BME280_humidity;BME280_pressure;Samples;Min_cycle;Max_cycle;Signal;HPM_P1;HPM_P2
2022/10/17 00:00:43;;;;;;;7.22;4.80;;;16.20;84.70;;;;;;5115619;28;20028;-70
2022/10/17 00:03:09;;;;;;;8.57;4.72;;;16.20;84.60;;;;;;5097612;28;20083;-69
2022/10/17 00:05:42;;;;;;;7.55;4.82;;;16.20;84.60;;;;;;5115545;28;20024;-69
2022/10/17 00:08:09;;;;;;;7.97;5.13;;;16.20;85.00;;;;;;5115534;28;20028;-70
2022/10/17 00:10:35;;;;;;;10.82;4.93;;;16.20;84.90;;;;;;5115457;28;20035;-69
2022/10/17 00:13:01;;;;;;;7.03;4.95;;;16.20;84.90;;;;;;5115391;28;20084;-69
2022/10/17 00:15:27;;;;;;;9.85;5.25;;;16.20;84.70;;;;;;5115272;28;20025;-69
2022/10/17 00:17:53;;;;;;;7.63;5.40;;;16.20;84.70;;;;;;5115298;28;20063;-69
2022/10/17 00:20:18;;;;;;;6.88;5.20;;;16.10;84.90;;;;;;5115259;28;20035;-69
2022/10/17 00:22:44;;;;;;;9.77;5.20;;;16.20;85.00;;;;;;5097318;28;20027;-70
2022/10/17 00:25:10;;;;;;;7.60;4.82;;;16.20;84.80;;;;;;5115140;28;20039;-70
2022/10/17 00:27:37;;;;;;;8.63;4.97;;;16.20;84.80;;;;;;5097207;28;20031;-70
2022/10/17 00:30:05;;;;;;;8.55;5.18;;;16.20;85.00;;;;;;5114983;28;20032;-69
2022/10/17 00:32:30;;;;;;;7.75;4.85;;;16.20;84.90;;;;;;5115015;28;20095;-69
2022/10/17 00:34:57;;;;;;;7.85;4.97;;;16.20;84.90;;;;;;5114865;28;20050;-69
2022/10/17 00:37:23;;;;;;;8.00;5.28;;;16.20;85.00;;;;;;5114892;28;20024;-69
2022/10/17 00:39:48;;;;;;;12.07;5.32;;;16.20;85.00;;;;;;5097001;28;20463;-69
2022/10/17 00:42:14;;;;;;;7.72;4.57;;;16.20;85.00;;;;;;5114806;28;20103;-69
2022/10/17 00:44:40;;;;;;;10.48;5.25;;;16.20;85.10;;;;;;5114785;28;20024;-69
2022/10/17 00:47:10;;;;;;;8.27;5.20;;;16.20;85.20;;;;;;5114729;28;20032;-70
2022/10/17 00:49:38;;;;;;;8.15;5.00;;;16.20;85.10;;;;;;5113788;28;20028;-70
2022/10/17 00:52:10;;;;;;;8.50;4.95;;;16.10;85.00;;;;;;5114630;28;20106;-69
2022/10/17 00:54:44;;;;;;;9.02;5.18;;;16.10;85.30;;;;;;5114649;28;20024;-69
2022/10/17 00:57:11;;;;;;;8.98;5.35;;;16.10;85.50;;;;;;5114505;28;20049;-69
2022/10/17 00:59:38;;;;;;;8.10;5.18;;;16.10;85.40;;;;;;5114507;28;20016;-69
2022/10/17 01:02:12;;;;;;;6.15;4.45;;;16.10;85.40;;;;;;5114251;28;20039;-69
2022/10/17 01:04:45;;;;;;;7.93;5.03;;;16.10;85.30;;;;;;5114433;28;20020;-69
2022/10/17 01:07:10;;;;;;;6.82;4.63;;;16.10;85.20;;;;;;5114384;28;20020;-69
2022/10/17 01:09:36;;;;;;;7.18;4.97;;;16.10;85.50;;;;;;5114327;28;20031;-69
2022/10/17 01:12:18;;;;;;;12.07;5.18;;;16.10;85.60;;;;;;5096270;28;20035;-69
2022/10/17 01:15:04;;;;;;;10.18;5.13;;;16.20;85.70;;;;;;5114177;28;20024;-69
2022/10/17 01:18:00;;;;;;;8.45;4.88;;;16.10;85.60;;;;;;5114149;28;20032;-70
2022/10/17 01:20:46;;;;;;;8.13;5.03;;;16.10;85.70;;;;;;5114184;28;20031;-70
2022/10/17 01:23:45;;;;;;;7.78;4.55;;;16.10;86.50;;;;;;5082930;28;20061;-69
2022/10/17 01:26:35;;;;;;;9.07;5.40;;;16.10;86.60;;;;;;5096284;28;20032;-69
2022/10/17 01:29:19;;;;;;;8.18;5.43;;;16.10;86.60;;;;;;5113964;28;20084;-69
2022/10/17 01:31:58;;;;;;;10.05;5.15;;;16.10;86.60;;;;;;5113980;28;20024;-70
2022/10/17 01:34:38;;;;;;;8.23;4.75;;;16.10;86.70;;;;;;5113943;28;20024;-69
2022/10/17 01:37:34;;;;;;;9.43;5.57;;;16.10;86.80;;;;;;5095834;28;20020;-70
2022/10/17 01:40:00;;;;;;;7.18;4.57;;;16.10;86.80;;;;;;5095860;28;20091;-70
2022/10/17 01:42:32;;;;;;;8.35;5.28;;;16.10;87.10;;;;;;5095930;28;20027;-70
2022/10/17 01:45:05;;;;;;;8.10;5.53;;;16.10;87.10;;;;;;5113961;28;20044;-69
2022/10/17 01:47:33;;;;;;;8.07;5.40;;;16.10;87.30;;;;;;5113923;28;20020;-69
2022/10/17 01:50:17;;;;;;;8.50;5.57;;;16.10;87.50;;;;;;5113690;28;20019;-69
2022/10/17 01:52:51;;;;;;;9.65;5.35;;;16.10;87.90;;;;;;5113702;28;20054;-69
2022/10/17 01:55:21;;;;;;;7.65;5.22;;;16.10;88.30;;;;;;5113590;28;20020;-69
2022/10/17 01:58:10;;;;;;;9.35;5.53;;;16.20;88.80;;;;;;5095775;28;20348;-69
2022/10/17 02:00:36;;;;;;;8.95;5.22;;;16.20;88.90;;;;;;5113480;28;20079;-69
2022/10/17 02:03:06;;;;;;;7.22;5.00;;;16.20;90.00;;;;;;5113403;28;20099;-69
2022/10/17 02:05:37;;;;;;;10.80;5.90;;;16.20;90.10;;;;;;5113520;28;20020;-69
2022/10/17 02:08:03;;;;;;;9.40;5.93;;;16.20;90.10;;;;;;5113573;28;20028;-69
2022/10/17 02:10:46;;;;;;;9.55;5.60;;;16.20;90.10;;;;;;5095719;28;20032;-69
2022/10/17 02:13:33;;;;;;;11.05;6.28;;;16.30;90.50;;;;;;5113460;28;20092;-69
2022/10/17 02:16:39;;;;;;;12.15;6.00;;;16.30;90.50;;;;;;5113389;28;20109;-69
2022/10/17 02:19:14;;;;;;;9.00;5.80;;;16.30;90.40;;;;;;5113435;28;20035;-69
2022/10/17 02:21:58;;;;;;;9.60;5.88;;;16.20;90.90;;;;;;5113441;28;20016;-69
2022/10/17 02:24:48;;;;;;;9.35;5.88;;;16.20;90.90;;;;;;5113532;28;20025;-69
2022/10/17 02:27:32;;;;;;;14.25;6.30;;;16.20;90.90;;;;;;5113494;28;20040;-69
2022/10/17 02:30:09;;;;;;;13.02;6.40;;;16.30;90.80;;;;;;5113384;28;20024;-69
2022/10/17 02:32:47;;;;;;;10.15;5.85;;;16.30;90.70;;;;;;5095483;28;20090;-69
2022/10/17 02:35:15;;;;;;;11.55;6.15;;;16.40;90.60;;;;;;5113343;28;20172;-69
2022/10/17 02:37:43;;;;;;;14.20;6.00;;;16.40;90.50;;;;;;5095436;28;20387;-69
2022/10/17 02:40:11;;;;;;;9.73;5.85;;;16.40;90.40;;;;;;5095382;28;20020;-69
2022/10/17 02:42:38;;;;;;;12.25;6.20;;;16.40;90.40;;;;;;5113211;28;20043;-69
2022/10/17 02:45:04;;;;;;;9.05;5.95;;;16.40;90.30;;;;;;5113141;28;20028;-69
2022/10/17 02:47:40;;;;;;;10.93;6.20;;;16.50;90.30;;;;;;5113131;28;20125;-69
2022/10/17 02:50:06;;;;;;;11.93;6.28;;;16.50;90.30;;;;;;5113093;28;20036;-69
2022/10/17 02:52:31;;;;;;;10.48;6.25;;;16.50;90.40;;;;;;5113078;28;20032;-70
2022/10/17 02:55:07;;;;;;;12.15;6.03;;;16.50;90.50;;;;;;5112993;28;20026;-69
2022/10/17 02:57:56;;;;;;;10.85;6.05;;;16.50;90.40;;;;;;5113058;28;20020;-69
2022/10/17 03:00:23;;;;;;;9.30;6.13;;;16.50;90.40;;;;;;5112482;28;20036;-69
2022/10/17 03:02:51;;;;;;;13.38;6.47;;;16.50;90.30;;;;;;5094950;28;20104;-69
2022/10/17 03:05:23;;;;;;;10.30;6.35;;;16.50;90.30;;;;;;5095067;28;20020;-69
2022/10/17 03:07:48;;;;;;;9.82;5.80;;;16.50;90.40;;;;;;5095161;28;20024;-69
2022/10/17 03:10:14;;;;;;;11.70;6.28;;;16.50;90.30;;;;;;5095182;28;20073;-69
2022/10/17 03:12:40;;;;;;;10.60;6.13;;;16.50;90.30;;;;;;5113838;28;20020;-69
2022/10/17 03:15:06;;;;;;;10.93;6.07;;;16.50;90.30;;;;;;5116594;28;20034;-69
2022/10/17 03:17:32;;;;;;;9.98;6.22;;;16.50;90.40;;;;;;5098496;28;20024;-69
2022/10/17 03:19:58;;;;;;;12.38;6.40;;;16.50;90.30;;;;;;5116479;28;20024;-69
2022/10/17 03:22:23;;;;;;;10.45;5.70;;;16.50;90.30;;;;;;5098561;28;20027;-69
2022/10/17 03:24:49;;;;;;;9.63;6.20;;;16.50;90.20;;;;;;5098546;28;20490;-69
2022/10/17 03:27:15;;;;;;;9.98;6.40;;;16.50;90.10;;;;;;5116311;28;20053;-69
2022/10/17 03:29:41;;;;;;;10.43;6.03;;;16.50;90.20;;;;;;5098414;28;20475;-69
2022/10/17 03:32:06;;;;;;;9.35;5.63;;;16.50;90.10;;;;;;5116330;28;20069;-70
2022/10/17 03:34:32;;;;;;;12.00;6.85;;;16.50;90.10;;;;;;5098297;28;20036;-69
2022/10/17 03:36:57;;;;;;;13.35;6.43;;;16.50;90.20;;;;;;5116182;28;20043;-69
2022/10/17 03:39:23;;;;;;;11.80;6.45;;;16.50;90.40;;;;;;5116083;28;20083;-69
2022/10/17 03:41:49;;;;;;;9.80;6.35;;;16.50;90.30;;;;;;5116168;28;20024;-69
2022/10/17 03:44:14;;;;;;;10.93;6.30;;;16.50;90.20;;;;;;5116120;28;20035;-69
2022/10/17 03:46:40;;;;;;;11.63;5.95;;;16.50;90.30;;;;;;5115950;28;20063;-69
2022/10/17 03:49:08;;;;;;;14.75;6.82;;;16.50;90.40;;;;;;5115906;28;20032;-69
2022/10/17 03:51:34;;;;;;;12.25;6.35;;;16.50;90.50;;;;;;5115814;28;20020;-69
2022/10/17 03:54:00;;;;;;;11.77;6.85;;;16.50;90.50;;;;;;5097852;28;20056;-69
2022/10/17 03:56:26;;;;;;;9.43;6.35;;;16.50;90.60;;;;;;5115668;28;20035;-69
2022/10/17 03:58:53;;;;;;;10.55;5.95;;;16.50;90.60;;;;;;5097766;28;20388;-69
2022/10/17 04:01:19;;;;;;;11.10;6.45;;;16.50;90.60;;;;;;5094308;28;20043;-69
2022/10/17 04:03:52;;;;;;;9.38;6.03;;;16.50;90.60;;;;;;5095468;28;20033;-69
2022/10/17 04:06:18;;;;;;;12.73;6.00;;;16.60;90.60;;;;;;5094423;28;20021;-69
2022/10/17 04:08:44;;;;;;;10.25;6.00;;;16.60;90.60;;;;;;5094248;28;20044;-69
2022/10/17 04:11:14;;;;;;;12.48;6.63;;;16.60;90.50;;;;;;5077531;28;20021;-69
2022/10/17 04:13:41;;;;;;;13.00;6.88;;;16.60;90.50;;;;;;5095245;28;20046;-69
2022/10/17 04:16:10;;;;;;;9.65;6.20;;;16.60;90.40;;;;;;5077286;28;20037;-69
2022/10/17 04:18:36;;;;;;;10.52;6.65;;;16.50;90.40;;;;;;5094980;28;20028;-69
2022/10/17 04:21:03;;;;;;;12.95;6.80;;;16.50;90.90;;;;;;5094971;28;20024;-69
2022/10/17 04:23:29;;;;;;;12.10;6.45;;;16.50;90.90;;;;;;5094806;28;20048;-69
2022/10/17 04:25:56;;;;;;;12.57;6.80;;;16.60;91.10;;;;;;5094846;28;20029;-69
2022/10/17 04:28:23;;;;;;;11.00;6.53;;;16.60;91.00;;;;;;5094769;28;20392;-69
2022/10/17 04:30:59;;;;;;;11.85;6.65;;;16.70;91.00;;;;;;5093721;28;20036;-69
2022/10/17 04:33:25;;;;;;;14.85;7.60;;;16.70;91.00;;;;;;5094721;28;20025;-69
2022/10/17 04:36:18;;;;;;;10.85;6.22;;;16.70;91.00;;;;;;5093650;28;20037;-69
2022/10/17 04:38:44;;;;;;;12.30;6.60;;;16.80;91.10;;;;;;5094386;28;20035;-69
2022/10/17 04:41:13;;;;;;;11.18;6.30;;;16.70;91.20;;;;;;5094556;28;20107;-69
2022/10/17 04:43:39;;;;;;;8.98;6.20;;;16.70;91.30;;;;;;5094488;28;20051;-70
2022/10/17 04:46:09;;;;;;;10.10;6.47;;;16.80;91.20;;;;;;5094558;28;20048;-69
2022/10/17 04:48:34;;;;;;;12.90;6.85;;;16.80;91.30;;;;;;5093353;28;20021;-70
2022/10/17 04:51:03;;;;;;;12.90;6.50;;;16.80;91.20;;;;;;5094370;28;20032;-69
2022/10/17 04:53:31;;;;;;;11.48;5.93;;;16.80;91.20;;;;;;5094299;28;20050;-69
2022/10/17 04:55:57;;;;;;;10.90;5.93;;;16.80;91.20;;;;;;5094237;28;20031;-69
2022/10/17 04:58:23;;;;;;;13.27;6.15;;;16.90;91.10;;;;;;5093196;28;20025;-69
2022/10/17 05:00:49;;;;;;;11.40;6.28;;;16.80;91.20;;;;;;5094176;28;20021;-69
2022/10/17 05:03:14;;;;;;;8.05;5.25;;;16.80;91.50;;;;;;5096584;28;20028;-69
2022/10/17 05:05:41;;;;;;;10.18;6.00;;;16.80;91.40;;;;;;5114385;28;20039;-69
2022/10/17 05:08:08;;;;;;;9.15;6.65;;;16.90;91.30;;;;;;5096477;28;20036;-69
2022/10/17 05:10:40;;;;;;;10.20;6.05;;;16.90;91.20;;;;;;5114320;28;20024;-70
2022/10/17 05:13:07;;;;;;;11.55;6.10;;;16.90;91.10;;;;;;5114423;28;20039;-69
2022/10/17 05:15:34;;;;;;;9.50;5.63;;;17.00;91.10;;;;;;5096193;28;20035;-69
2022/10/17 05:17:59;;;;;;;12.57;5.95;;;17.00;91.00;;;;;;5114161;28;20020;-69
2022/10/17 05:20:26;;;;;;;10.27;6.50;;;17.00;91.00;;;;;;5114145;28;20020;-70
2022/10/17 05:22:51;;;;;;;11.02;5.32;;;17.00;90.90;;;;;;5114143;28;20020;-69
2022/10/17 05:25:18;;;;;;;10.77;5.95;;;17.00;90.80;;;;;;5114067;28;20031;-69
2022/10/17 05:27:43;;;;;;;9.85;5.45;;;16.90;90.80;;;;;;5113998;28;20024;-69
2022/10/17 05:30:09;;;;;;;10.23;5.95;;;16.90;91.00;;;;;;5113959;28;20020;-69
2022/10/17 05:32:35;;;;;;;10.98;5.20;;;17.00;90.90;;;;;;5113974;28;20103;-69
2022/10/17 05:35:02;;;;;;;20.23;5.45;;;16.90;90.90;;;;;;5095621;28;20024;-69
2022/10/17 05:37:29;;;;;;;15.73;5.35;;;17.00;90.90;;;;;;5113857;28;20028;-69
2022/10/17 05:39:54;;;;;;;11.50;5.22;;;17.00;90.90;;;;;;5113825;28;20031;-69
2022/10/17 05:42:20;;;;;;;10.38;6.18;;;16.90;91.00;;;;;;5096069;28;20028;-69
2022/10/17 05:44:46;;;;;;;14.43;5.75;;;17.00;91.10;;;;;;5113754;28;20046;-69
2022/10/17 05:47:11;;;;;;;11.63;5.40;;;17.00;91.10;;;;;;5113758;28;20032;-69
2022/10/17 05:49:37;;;;;;;11.38;5.90;;;17.00;91.00;;;;;;5095928;28;20032;-69
2022/10/17 05:52:03;;;;;;;9.07;5.63;;;17.00;91.10;;;;;;5113685;28;20039;-69
2022/10/17 05:54:28;;;;;;;8.77;5.35;;;17.00;91.10;;;;;;5113650;28;20024;-69
2022/10/17 05:56:55;;;;;;;12.85;5.35;;;17.00;91.10;;;;;;5113547;28;20073;-69
2022/10/17 05:59:21;;;;;;;9.88;5.30;;;17.00;91.20;;;;;;5113601;28;20040;-69
2022/10/17 06:01:46;;;;;;;9.00;5.45;;;17.10;91.10;;;;;;5095648;28;20106;-69
2022/10/17 06:04:12;;;;;;;8.25;5.53;;;17.10;91.10;;;;;;5113561;28;20073;-69
2022/10/17 06:06:39;;;;;;;9.98;5.55;;;17.10;91.00;;;;;;5078877;28;20032;-69
2022/10/17 06:09:04;;;;;;;10.18;5.13;;;17.10;91.20;;;;;;5113465;28;20028;-69
2022/10/17 06:11:30;;;;;;;9.65;5.40;;;17.00;91.70;;;;;;5113500;28;20035;-69
2022/10/17 06:13:55;;;;;;;12.23;5.78;;;17.00;91.30;;;;;;5113478;28;20043;-69
2022/10/17 06:16:21;;;;;;;9.13;5.40;;;17.10;91.20;;;;;;5095594;28;20033;-69
2022/10/17 06:18:47;;;;;;;10.77;5.75;;;17.10;91.20;;;;;;5113414;28;20028;-69
2022/10/17 06:21:17;;;;;;;10.73;5.70;;;17.10;91.20;;;;;;5113413;28;20024;-69
2022/10/17 06:23:42;;;;;;;9.70;6.00;;;17.10;91.30;;;;;;5113463;28;20036;-69
2022/10/17 06:26:08;;;;;;;8.70;5.38;;;17.10;91.20;;;;;;5113342;28;20043;-69
2022/10/17 06:28:35;;;;;;;10.93;5.55;;;17.10;91.20;;;;;;5095219;28;20024;-70
2022/10/17 06:31:08;;;;;;;10.48;5.35;;;17.20;91.20;;;;;;5113299;28;20449;-69
2022/10/17 06:33:34;;;;;;;8.45;5.75;;;17.20;91.20;;;;;;5113442;28;20024;-70
2022/10/17 06:36:00;;;;;;;9.90;5.55;;;17.20;91.10;;;;;;5113181;28;20028;-69
2022/10/17 06:38:26;;;;;;;10.18;5.90;;;17.20;91.20;;;;;;5113223;28;20020;-69
2022/10/17 06:40:53;;;;;;;16.80;5.93;;;17.20;91.60;;;;;;5113349;28;20051;-69
2022/10/17 06:43:19;;;;;;;9.75;5.53;;;17.20;91.10;;;;;;5113184;28;20024;-69
2022/10/17 06:45:46;;;;;;;9.75;5.88;;;17.20;91.10;;;;;;5113173;28;20031;-69
2022/10/17 06:48:12;;;;;;;11.50;5.35;;;17.20;91.20;;;;;;5115028;28;20547;-69
2022/10/17 06:50:37;;;;;;;9.75;5.85;;;17.30;91.20;;;;;;5098900;28;20036;-69
2022/10/17 06:53:03;;;;;;;11.40;5.22;;;17.30;91.10;;;;;;5099297;28;20036;-69
2022/10/17 06:55:30;;;;;;;9.88;5.63;;;17.40;91.40;;;;;;5116882;28;20024;-69
2022/10/17 06:57:56;;;;;;;12.07;5.80;;;17.40;90.90;;;;;;5116901;28;20020;-70
2022/10/17 07:00:22;;;;;;;10.05;5.40;;;17.30;90.90;;;;;;5116887;28;20022;-69
2022/10/17 07:02:48;;;;;;;8.65;5.22;;;17.40;90.90;;;;;;5116636;28;20040;-70
2022/10/17 07:05:14;;;;;;;8.43;5.20;;;17.40;90.90;;;;;;5116736;28;20024;-69
2022/10/17 07:07:40;;;;;;;10.07;5.93;;;17.40;90.90;;;;;;5116735;28;20035;-69
2022/10/17 07:10:08;;;;;;;11.60;5.75;;;17.40;90.90;;;;;;5116655;28;20105;-69
2022/10/17 07:12:36;;;;;;;14.18;7.28;;;17.50;90.80;;;;;;5099217;28;20025;-69
2022/10/17 07:15:05;;;;;;;10.10;5.38;;;17.50;90.80;;;;;;5116634;28;20047;-69
2022/10/17 07:17:31;;;;;;;9.77;5.55;;;17.50;90.80;;;;;;5116666;28;20028;-71
2022/10/17 07:19:57;;;;;;;9.02;5.47;;;17.50;90.80;;;;;;5098520;28;20020;-69
2022/10/17 07:22:22;;;;;;;9.48;5.70;;;17.60;90.80;;;;;;5116592;28;20055;-69
2022/10/17 07:24:48;;;;;;;15.00;5.88;;;17.60;90.80;;;;;;5116409;28;20021;-69
2022/10/17 07:27:14;;;;;;;10.73;6.15;;;17.60;90.80;;;;;;5116343;28;20380;-69
2022/10/17 07:29:40;;;;;;;9.18;5.82;;;17.60;90.70;;;;;;5116237;28;20087;-69
2022/10/17 07:32:07;;;;;;;11.40;6.30;;;17.70;90.60;;;;;;5081729;28;20046;-69
2022/10/17 07:34:34;;;;;;;8.88;5.95;;;17.70;90.60;;;;;;5116358;28;20024;-69
2022/10/17 07:37:00;;;;;;;9.65;5.75;;;17.70;90.60;;;;;;5116082;28;20032;-70
2022/10/17 07:39:25;;;;;;;10.48;5.47;;;17.70;90.60;;;;;;5116116;28;20069;-69
2022/10/17 07:41:51;;;;;;;14.00;6.38;;;17.70;90.60;;;;;;5116086;28;20028;-69
2022/10/17 07:44:17;;;;;;;12.13;6.07;;;17.70;90.60;;;;;;5116035;28;20032;-69
2022/10/17 07:46:42;;;;;;;9.38;5.60;;;17.70;90.60;;;;;;5098167;28;20032;-69
2022/10/17 07:49:08;;;;;;;11.73;6.63;;;17.70;90.60;;;;;;5115935;28;20028;-69
2022/10/17 07:51:33;;;;;;;12.13;5.82;;;17.70;90.60;;;;;;5098137;28;20032;-69
2022/10/17 07:53:59;;;;;;;9.35;5.65;;;17.80;90.50;;;;;;5097927;28;20036;-70
2022/10/17 07:56:25;;;;;;;11.88;5.78;;;17.80;90.50;;;;;;5115702;28;20029;-70
2022/10/17 07:58:52;;;;;;;9.70;5.95;;;17.70;90.50;;;;;;5115292;28;20024;-69
2022/10/17 08:01:18;;;;;;;9.52;6.05;;;17.80;90.40;;;;;;5115495;28;20045;-69
2022/10/17 08:03:44;;;;;;;11.43;5.78;;;17.80;90.40;;;;;;5115664;28;20022;-69
2022/10/17 08:06:10;;;;;;;10.00;6.00;;;17.80;90.50;;;;;;5115586;28;20048;-70
2022/10/17 08:08:36;;;;;;;10.32;5.95;;;17.80;90.50;;;;;;5097729;28;20054;-69
2022/10/17 08:11:04;;;;;;;11.82;6.53;;;17.80;90.50;;;;;;5115610;28;20024;-70
2022/10/17 08:13:30;;;;;;;14.00;7.50;;;17.80;90.50;;;;;;5115611;28;20024;-70
2022/10/17 08:16:06;;;;;;;9.52;5.70;;;17.70;90.50;;;;;;5115331;28;20092;-69
2022/10/17 08:18:31;;;;;;;21.02;8.63;;;17.80;90.50;;;;;;5115375;28;20052;-69
2022/10/17 08:21:02;;;;;;;10.68;6.55;;;17.80;90.50;;;;;;5097543;28;20032;-69
2022/10/17 08:23:28;;;;;;;10.38;6.40;;;17.80;90.50;;;;;;5115239;28;20038;-69
2022/10/17 08:25:54;;;;;;;11.77;5.22;;;17.80;90.50;;;;;;5097349;28;20032;-70
2022/10/17 08:28:19;;;;;;;12.68;5.80;;;17.80;90.50;;;;;;5115103;28;20024;-70
2022/10/17 08:30:45;;;;;;;9.55;5.32;;;17.80;90.50;;;;;;5115113;28;20031;-69
2022/10/17 08:33:10;;;;;;;12.60;6.32;;;17.90;90.50;;;;;;5115065;28;20032;-69
2022/10/17 08:35:36;;;;;;;9.00;5.25;;;17.90;90.40;;;;;;5114946;28;20036;-69
2022/10/17 08:38:02;;;;;;;9.38;6.13;;;17.90;90.40;;;;;;5097187;28;20050;-69
2022/10/17 08:40:32;;;;;;;8.45;5.63;;;18.00;90.30;;;;;;5096977;28;20032;-69
2022/10/17 08:43:14;;;;;;;10.00;5.35;;;18.00;90.20;;;;;;5114951;28;20024;-69
2022/10/17 08:45:55;;;;;;;9.55;6.88;;;18.00;90.20;;;;;;5114867;28;20054;-69
2022/10/17 08:48:25;;;;;;;12.55;7.25;;;18.00;90.60;;;;;;5114787;28;20380;-69
2022/10/17 08:50:56;;;;;;;8.73;5.63;;;18.00;90.10;;;;;;5096842;28;20032;-70
2022/10/17 08:53:37;;;;;;;8.98;6.05;;;18.00;90.10;;;;;;5114855;28;20024;-70
2022/10/17 08:56:17;;;;;;;12.00;7.28;;;18.10;90.10;;;;;;5114606;28;20020;-74
2022/10/17 08:58:43;;;;;;;8.82;5.95;;;18.10;90.10;;;;;;5114568;28;20028;-71
2022/10/17 09:01:22;;;;;;;9.20;5.45;;;18.10;90.10;;;;;;5126197;22;20074;-83
2022/10/17 09:04:22;;;;;;;9.70;5.57;;;18.10;90.10;;;;;;5094929;28;20019;-79
2022/10/17 09:07:00;;;;;;;12.60;6.05;;;18.10;90.20;;;;;;5114600;28;20027;-86
2022/10/17 09:09:45;;;;;;;8.98;5.80;;;18.10;90.30;;;;;;5096073;28;20077;-78
2022/10/17 09:12:17;;;;;;;7.22;5.25;;;18.10;90.30;;;;;;5096006;28;20106;-83
2022/10/17 09:15:11;;;;;;;9.75;6.13;;;18.10;90.20;;;;;;5095718;28;20030;-82
2022/10/17 09:18:15;;;;;;;8.25;4.72;;;18.10;90.30;;;;;;5096151;28;20408;-79
2022/10/17 09:20:46;;;;;;;8.05;5.05;;;18.10;90.60;;;;;;5096116;28;20020;-78
2022/10/17 09:23:21;;;;;;;9.35;4.57;;;18.10;90.70;;;;;;5096049;28;20042;-82
2022/10/17 09:25:52;;;;;;;8.75;4.82;;;18.10;90.40;;;;;;5114417;28;20031;-83
2022/10/17 09:28:22;;;;;;;7.53;4.75;;;18.10;90.30;;;;;;5096172;28;20023;-83
2022/10/17 09:30:58;;;;;;;7.43;4.47;;;18.10;90.30;;;;;;5096054;28;20431;-86
2022/10/17 09:33:29;;;;;;;8.15;5.07;;;18.10;90.40;;;;;;5096026;28;20507;-79
2022/10/17 09:35:57;;;;;;;9.68;5.22;;;18.10;90.40;;;;;;5113947;28;20112;-86
2022/10/17 09:38:34;;;;;;;10.80;5.78;;;18.10;90.40;;;;;;5114301;28;20031;-86
2022/10/17 09:41:01;;;;;;;8.98;5.28;;;18.10;90.60;;;;;;5096720;28;20015;-86
2022/10/17 09:43:27;;;;;;;10.10;5.10;;;18.00;90.80;;;;;;5063932;28;20019;-86
2022/10/17 09:46:07;;;;;;;10.45;5.45;;;18.00;91.30;;;;;;5062899;28;20039;-87
2022/10/17 09:48:50;;;;;;;11.77;5.75;;;17.90;91.30;;;;;;5096864;28;20043;-87
2022/10/17 09:51:18;;;;;;;13.52;6.03;;;18.00;91.10;;;;;;5096726;28;20473;-87
2022/10/17 09:53:50;;;;;;;9.65;5.95;;;17.90;91.30;;;;;;5080219;28;20080;-87
2022/10/17 09:56:18;;;;;;;10.55;5.43;;;17.90;91.30;;;;;;5097181;28;20028;-87
2022/10/17 09:58:56;;;;;;;9.57;5.28;;;17.90;91.80;;;;;;5080224;28;20392;-86
2022/10/17 10:01:25;;;;;;;7.75;4.75;;;17.90;91.50;;;;;;5096523;28;20055;-87
2022/10/17 10:04:12;;;;;;;8.15;4.90;;;17.90;91.90;;;;;;5096471;28;20073;-87
2022/10/17 10:06:39;;;;;;;11.02;5.95;;;17.90;91.40;;;;;;5096730;28;20019;-87
2022/10/17 10:09:24;;;;;;;8.50;5.40;;;17.90;91.50;;;;;;5063247;28;20030;-87
2022/10/17 10:11:54;;;;;;;10.85;5.40;;;18.00;91.60;;;;;;5096355;28;20114;-87
2022/10/17 10:14:34;;;;;;;9.57;5.63;;;17.90;91.70;;;;;;5096513;28;20019;-87
2022/10/17 10:17:01;;;;;;;8.77;5.70;;;18.00;91.90;;;;;;5096787;28;20084;-87
2022/10/17 10:19:29;;;;;;;9.30;5.25;;;18.00;91.90;;;;;;5096355;28;20063;-87
2022/10/17 10:21:58;;;;;;;10.80;6.10;;;18.00;91.90;;;;;;5097967;28;20019;-87
2022/10/17 10:24:26;;;;;;;10.20;6.47;;;18.00;91.90;;;;;;5100858;28;20583;-87
2022/10/17 10:26:55;;;;;;;13.10;6.35;;;18.00;91.90;;;;;;5100688;28;20031;-87
2022/10/17 10:29:34;;;;;;;12.70;6.20;;;18.00;92.00;;;;;;5100424;28;20394;-87
2022/10/17 10:32:18;;;;;;;9.80;5.82;;;18.00;92.00;;;;;;5100610;28;20520;-87
2022/10/17 10:34:49;;;;;;;11.35;6.40;;;17.90;92.40;;;;;;5118532;28;20092;-86
2022/10/17 10:37:28;;;;;;;10.18;6.00;;;17.90;92.30;;;;;;5100280;28;20027;-87
2022/10/17 10:40:29;;;;;;;8.88;5.68;;;18.00;92.30;;;;;;5100355;28;20016;-87
2022/10/17 10:42:58;;;;;;;9.82;5.07;;;17.90;92.50;;;;;;5067936;28;20484;-87
2022/10/17 10:45:35;;;;;;;11.18;5.53;;;17.90;92.30;;;;;;5118328;28;20019;-87
2022/10/17 10:48:19;;;;;;;10.40;5.72;;;17.90;92.60;;;;;;5099824;28;20024;-86
2022/10/17 10:51:04;;;;;;;8.82;5.15;;;17.90;92.40;;;;;;5117646;27;20441;-86
2022/10/17 10:53:48;;;;;;;8.52;5.32;;;17.90;92.40;;;;;;5144431;27;20015;-87
2022/10/17 10:56:27;;;;;;;9.45;5.65;;;18.00;92.40;;;;;;5122353;27;20451;-87
2022/10/17 10:59:07;;;;;;;9.45;5.40;;;18.00;92.50;;;;;;5120340;27;20019;-86
2022/10/17 11:01:55;;;;;;;8.80;5.93;;;18.00;92.40;;;;;;5115848;28;20051;-86
2022/10/17 11:04:34;;;;;;;10.93;5.85;;;18.00;92.40;;;;;;5115980;28;20055;-87
2022/10/17 11:07:14;;;;;;;9.80;5.70;;;18.10;92.40;;;;;;5116952;28;20024;-87
2022/10/17 11:10:22;;;;;;;10.25;5.43;;;18.10;92.40;;;;;;5116659;28;20020;-87
2022/10/17 11:13:13;;;;;;;10.02;5.95;;;18.10;92.40;;;;;;5096991;28;20134;-86
2022/10/17 11:15:47;;;;;;;11.73;6.70;;;18.10;92.50;;;;;;5117677;28;20034;-86
2022/10/17 11:18:31;;;;;;;13.07;6.75;;;18.10;92.50;;;;;;5116372;28;20023;-87
2022/10/17 11:21:48;;;;;;;12.05;6.95;;;18.10;92.40;;;;;;5116275;28;20076;-87
2022/10/17 11:24:28;;;;;;;12.18;7.78;;;18.10;92.50;;;;;;5106075;28;20059;-87
2022/10/17 11:26:59;;;;;;;15.55;7.50;;;18.10;92.50;;;;;;5117329;28;20035;-87
2022/10/17 11:29:32;;;;;;;13.25;7.65;;;18.10;92.50;;;;;;5116420;28;20055;-87
2022/10/17 11:32:04;;;;;;;14.07;7.35;;;18.10;92.50;;;;;;5117432;28;20028;-87
2022/10/17 11:34:39;;;;;;;11.85;7.20;;;18.20;92.50;;;;;;5115256;28;20068;-86
2022/10/17 11:37:13;;;;;;;14.90;7.22;;;18.20;92.50;;;;;;5117088;28;20026;-87
2022/10/17 11:40:03;;;;;;;11.80;7.00;;;18.20;92.50;;;;;;5116124;28;20041;-87
2022/10/17 11:42:40;;;;;;;11.95;7.00;;;18.20;92.50;;;;;;5115243;28;20544;-79
2022/10/17 11:45:16;;;;;;;12.75;7.88;;;18.20;92.50;;;;;;5115647;28;20439;-79
2022/10/17 11:47:57;;;;;;;17.65;7.88;;;18.20;92.50;;;;;;5116374;28;20027;-79
2022/10/17 11:50:36;;;;;;;12.02;7.10;;;18.20;92.50;;;;;;5115515;28;20020;-79
2022/10/17 11:53:23;;;;;;;16.73;7.60;;;18.20;92.60;;;;;;5115409;28;20028;-79
2022/10/17 11:55:52;;;;;;;13.43;7.38;;;18.20;92.50;;;;;;5115588;28;20119;-79
2022/10/17 11:58:32;;;;;;;13.52;6.68;;;18.20;92.60;;;;;;5115814;28;20009;-79
2022/10/17 12:01:32;;;;;;;14.70;7.30;;;18.20;92.50;;;;;;5114691;28;20100;-79
2022/10/17 12:04:12;;;;;;;12.82;6.63;;;18.20;92.50;;;;;;5115330;28;20501;-79
2022/10/17 12:07:08;;;;;;;13.52;7.07;;;18.20;92.40;;;;;;5114619;28;20050;-79
2022/10/17 12:09:53;;;;;;;13.73;8.75;;;18.20;92.50;;;;;;5115150;28;20035;-79
2022/10/17 12:12:28;;;;;;;13.90;8.65;;;18.20;92.50;;;;;;5116405;28;20031;-79
2022/10/17 12:15:22;;;;;;;14.27;9.77;;;18.20;92.50;;;;;;5115122;28;20104;-79
2022/10/17 12:18:01;;;;;;;14.30;8.05;;;18.30;92.40;;;;;;5108603;28;20123;-79
2022/10/17 12:20:38;;;;;;;13.93;7.75;;;18.30;92.40;;;;;;5097996;28;20043;-79
2022/10/17 12:23:11;;;;;;;13.93;7.28;;;18.30;92.40;;;;;;5097940;28;20028;-79
2022/10/17 12:25:47;;;;;;;;;;;18.30;92.40;;;;;;5115224;28;20444;-79
2022/10/17 12:28:27;;;;;;;10.75;7.43;;;18.30;92.30;;;;;;5114568;28;19904;-79
2022/10/17 12:31:16;;;;;;;13.93;7.32;;;18.30;92.40;;;;;;5116082;28;20031;-79
2022/10/17 12:34:01;;;;;;;13.25;6.68;;;18.30;92.30;;;;;;5101036;28;20076;-79
2022/10/17 12:36:27;;;;;;;26.27;12.30;;;18.30;92.40;;;;;;5114697;28;20515;-82
2022/10/17 12:39:02;;;;;;;21.35;11.63;;;18.30;92.40;;;;;;5116128;28;20106;-83
2022/10/17 12:41:38;;;;;;;14.45;8.80;;;18.20;92.40;;;;;;5114847;28;20501;-82
2022/10/17 12:44:14;;;;;;;14.77;8.23;;;18.30;92.40;;;;;;5114528;28;20015;-82
2022/10/17 12:46:51;;;;;;;17.15;9.20;;;18.30;92.40;;;;;;5115680;28;20434;-83
2022/10/17 12:49:36;;;;;;;42.40;18.60;;;18.30;92.50;;;;;;5114118;28;20027;-83
2022/10/17 12:52:24;;;;;;;17.15;9.80;;;18.40;92.40;;;;;;5114437;28;20023;-83
2022/10/17 12:55:18;;;;;;;14.23;7.28;;;18.40;92.40;;;;;;5114095;28;20058;-79
2022/10/17 12:58:01;;;;;;;14.77;8.07;;;18.40;92.50;;;;;;5106479;28;20027;-79
2022/10/17 13:00:42;;;;;;;15.98;8.38;;;18.40;92.50;;;;;;5114055;28;20073;-79
2022/10/17 13:03:16;;;;;;;15.20;8.93;;;18.50;92.60;;;;;;5114140;28;20028;-79
2022/10/17 13:05:51;;;;;;;17.30;9.10;;;18.50;92.70;;;;;;5115244;28;20534;-79